• Join FlightAware (Why Join?)
  • Login
  • US Flag 
07:33AM EDT


 

Airport Tracker/Info


-or-


 

Live Flight TrackerFlight Track Log ✈ N373LD ✈ 04-Apr-2014 ✈ KBGD - KSSF

Flight Track Log - Related Links

Times and Time Zones

All times are in EDT time to prevent confusion due to time zone crossing. See the N373LD flight status page for this flight to view local times or setup timezone preferences in your user account.

Time Position Orientation Groundspeed Altitude Reporting Facility
EDT Latitude Longitude Course Direction KTS MPH feet Rate Location/Type
10:13AM 35.5264 -101.3131 158° South 194 223 8,500  Level Albuquerque Center
10:14AM 35.4714 -101.2828 156° South 213 245 9,500 1,260 Climbing Albuquerque Center
10:15AM 35.4272 -101.2594 157° South 187 215 11,100 1,440 Climbing Albuquerque Center
10:16AM 35.3833 -101.2369 157° South 175 201 12,500 1,260 Climbing Albuquerque Center
10:17AM 35.6969 -101.3905 147° Southeast  Level FlightAware Approximate
10:17AM 35.3383 -101.2133 157° South 175 201 13,700  Level Albuquerque Center
10:18AM 35.2897 -101.1875 157° South 182 209 14,900 1,200 Climbing Albuquerque Center
10:19AM 35.2400 -101.1617 157° South 187 215 16,200 1,380 Climbing Albuquerque Center
10:20AM 35.1803 -101.1303 157° South 190 219 17,800 1,260 Climbing Albuquerque Center
10:21AM 35.1297 -101.1044 157° South 192 221 18,900 1,020 Climbing Albuquerque Center
10:22AM 35.0797 -101.0786 157° South 193 222 20,000 1,080 Climbing Albuquerque Center
10:23AM 35.0286 -101.0514 156° South 194 223 21,200 1,140 Climbing Albuquerque Center
10:24AM 34.9756 -101.0247 158° South 198 228 22,400 1,140 Climbing Albuquerque Center
10:26AM 34.9236 -100.9972 157° South 203 234 23,600 1,020 Climbing Albuquerque Center
10:27AM 34.8694 -100.9708 158° South 204 235 24,600 1,020 Climbing Albuquerque Center
10:28AM 34.8150 -100.9411 156° South 210 242 25,800 960 Climbing Albuquerque Center
10:29AM 34.7483 -100.9072 157° South 212 244 26,700 480 Climbing Albuquerque Center
10:30AM 34.6867 -100.8761 157° South 230 265 26,800  Climbing Albuquerque Center
10:31AM 34.6183 -100.8400 156° South 258 297 26,800  Level Albuquerque Center
10:32AM 34.5347 -100.8000 158° South 265 305 26,800  Level Fort Worth Center
10:33AM 34.4675 -100.7647 157° South 265 305 26,800  Level Fort Worth Center
10:34AM 34.4003 -100.7306 157° South 264 304 26,800  Level Fort Worth Center
10:35AM 34.3336 -100.6956 157° South 263 303 26,800  Level Fort Worth Center
10:36AM 34.2525 -100.6536 157° South 263 303 26,800  Level Fort Worth Center
10:37AM 34.1836 -100.6194 158° South 264 304 26,800  Level Fort Worth Center
10:38AM 34.1156 -100.5864 158° South 264 304 26,800  Level Fort Worth Center
10:39AM 34.0458 -100.5497 156° South 264 304 26,800  Level Fort Worth Center
10:40AM 33.9786 -100.5150 157° South 264 304 26,800  Level Fort Worth Center
10:41AM 33.9114 -100.4811 157° South 263 303 26,800  Level Fort Worth Center
10:42AM 33.8425 -100.4489 159° South 263 303 26,900  Climbing Fort Worth Center
10:43AM 33.7764 -100.4144 157° South 263 303 26,900  Level Fort Worth Center
10:44AM 33.6950 -100.3758 158° South 262 302 27,000  Climbing Fort Worth Center
10:45AM 33.6272 -100.3417 157° South 262 302 27,000  Level Fort Worth Center
10:46AM 33.5619 -100.3081 157° South 258 297 27,000  Level Fort Worth Center
10:47AM 33.4917 -100.2750 159° South 264 304 27,000  Level Fort Worth Center
10:48AM 33.4244 -100.2475 161° South 260 299 27,000  Level Fort Worth Center
10:49AM 33.3547 -100.2178 160° South 261 300 27,000  Level Fort Worth Center
10:51AM 33.2708 -100.1847 162° South 262 302 27,000  Level Fort Worth Center
10:52AM 33.2017 -100.1561 161° South 262 302 27,000  Level Fort Worth Center
10:53AM 33.1311 -100.1278 161° South 262 302 27,000  Level Fort Worth Center
10:54AM 33.0631 -100.0994 161° South 262 302 27,000  Level Fort Worth Center
10:55AM 32.9939 -100.0706 161° South 262 302 27,000  Level Fort Worth Center
10:56AM 32.9247 -100.0428 161° South 262 302 27,000  Level Fort Worth Center
10:57AM 32.8428 -100.0100 161° South 262 302 27,000  Level Fort Worth Center
10:58AM 32.7742 -99.9831 162° South 262 302 27,000  Level Fort Worth Center
10:59AM 32.7083 -99.9547 160° South 262 302 27,000  Level Fort Worth Center
11:00AM 32.6414 -99.9269 161° South 261 300 27,000  Level Fort Worth Center
11:01AM 32.5572 -99.8944 162° South 263 303 27,000  Level Fort Worth Center
11:02AM 32.4883 -99.8664 161° South 263 303 27,000  Level Fort Worth Center
11:03AM 32.4217 -99.8311 156° South 262 302 27,000  Level Fort Worth Center
11:04AM 32.3536 -99.7969 157° South 264 304 27,000  Level Fort Worth Center
11:05AM 32.2861 -99.7611 156° South 266 306 27,000  Level Fort Worth Center
11:06AM 32.2042 -99.7181 156° South 266 306 27,000  Level Fort Worth Center
11:07AM 32.1364 -99.6833 157° South 266 306 27,000  Level Fort Worth Center
11:08AM 32.0686 -99.6658 168° South 249 287 27,000  Level Fort Worth Center
11:09AM 32.0003 -99.6503 169° South 248 285 27,000  Level Fort Worth Center
11:10AM 31.9308 -99.6319 167° South 250 288 27,000  Level Fort Worth Center
11:11AM 31.8622 -99.6164 169° South 251 289 27,000  Level Fort Worth Center
11:12AM 31.7803 -99.5964 168° South 250 288 27,000  Level Fort Worth Center
11:13AM 31.7111 -99.5786 168° South 251 289 27,000  Level Fort Worth Center
11:14AM 31.6433 -99.5625 169° South 251 289 27,000  Level Fort Worth Center
11:15AM 31.5750 -99.5456 168° South 251 289 27,000  Level Fort Worth Center
11:16AM 31.5061 -99.5300 169° South 251 289 27,000  Level Fort Worth Center
11:17AM 31.4383 -99.5136 168° South 251 289 27,000  Level Fort Worth Center
11:18AM 31.3628 -99.4878 164° South 250 288 27,000  Level Fort Worth Center
11:20AM 31.2978 -99.4417 149° Southeast 268 308 27,000  Level Fort Worth Center
11:21AM 31.2311 -99.3958 150° Southeast 272 313 27,000  Level Fort Worth Center
11:22AM 31.1653 -99.3508 150° Southeast 274 315 27,000 -240 Level Fort Worth Center
11:23AM 31.0872 -99.2992 150° Southeast 274 315 26,600 -480 Descending Houston Center
11:24AM 31.0183 -99.2514 149° Southeast 282 325 26,100 -480 Descending Houston Center
11:25AM 30.9492 -99.2031 149° Southeast 285 328 25,600 -540 Descending Houston Center
11:26AM 30.8803 -99.1572 150° Southeast 285 328 25,100 -540 Descending Houston Center
11:27AM 30.8128 -99.1122 150° Southeast 283 326 24,600 -540 Descending Houston Center
11:28AM 30.7464 -99.0669 150° Southeast 279 321 24,100 -780 Descending Houston Center
11:29AM 30.6672 -99.0128 150° Southeast 278 320 23,100 -1,620 Descending Houston Center
11:30AM 30.6003 -98.9700 151° Southeast 278 320 20,800 -2,220 Descending Houston Center
11:31AM 30.5389 -98.9289 150° Southeast 262 302 18,500 -2,040 Descending Houston Center
11:32AM 30.4803 -98.8894 150° Southeast 251 289 16,600 -1,920 Descending Houston Center
11:33AM 30.4228 -98.8506 150° Southeast 244 281 14,600 -1,980 Descending Houston Center
11:34AM 30.3686 -98.8144 150° Southeast 231 266 12,600 -2,040 Descending Houston Center
11:35AM 30.3133 -98.7794 151° Southeast 218 251 10,700 -2,100 Descending Houston Center
11:35AM 30.3072 -98.7728 137° Southeast 219 252 10,400 -1,740 Descending Houston Center
11:36AM 30.2778 -98.7569 155° Southeast 211 243 9,500 -1,680 Descending Houston Center
11:36AM 30.2519 -98.7364 145° Southeast 212 244 8,700 -1,140 Descending Houston Center
11:37AM 30.2283 -98.7217 152° Southeast 209 241 8,400 -600 Descending Houston Center
11:37AM 30.2025 -98.7036 149° Southeast 207 238 8,100 -300 Descending Houston Center
11:38AM 30.1711 -98.7142 196° South 198 228 8,100  Level Houston Center
11:38AM 30.1422 -98.7150 181° South 197 227 8,100  Level Houston Center
11:39AM 30.1169 -98.7181 186° South 199 229 8,100  Level Houston Center
11:39AM 30.0867 -98.7206 184° South 197 227 8,100  Level Houston Center
11:40AM 30.0650 -98.7242 188° South 201 231 8,100  Level Houston Center
11:40AM 30.0308 -98.7281 186° South 199 229 8,100  Level Houston Center
11:41AM 30.0006 -98.7319 186° South 202 232 8,100  Level Houston Center
11:41AM 29.9706 -98.7356 186° South 200 230 8,100 -120 Level Houston Center
11:42AM 29.9486 -98.7381 186° South 203 234 8,000 -420 Descending Houston Center
11:42AM 29.9131 -98.7311 170° South 208 239 7,700 -540 Descending Houston Center
11:43AM 29.8911 -98.7303 178° South 203 234 7,500 -600 Descending Houston Center
11:43AM 29.8553 -98.7236 171° South 198 228 7,100 -540 Descending Houston Center
11:44AM 29.8381 -98.7222 176° South 191 220 7,000 -540 Descending Houston Center
11:44AM 29.8033 -98.7175 173° South 192 221 6,600 -540 Descending Houston Center
11:45AM 29.7786 -98.7147 174° South 186 214 6,400 -480 Descending Houston Center
11:45AM 29.7464 -98.7089 171° South 191 220 6,100 -300 Descending Houston Center
11:46AM 29.7250 -98.7017 164° South 196 226 6,100  Level Houston Center
11:46AM 29.6944 -98.6917 164° South 192 221 6,100  Level Houston Center
11:47AM 29.6753 -98.6861 166° South 190 219 6,100  Level Houston Center
11:47AM 29.6408 -98.6742 163° South 189 217 6,100 -120 Level Houston Center
11:48AM 29.6233 -98.6706 170° South 188 216 6,000 -300 Descending Houston Center
11:49AM 29.5883 -98.6583 163° South 193 222 5,800 -360 Descending Houston Center
11:49AM 29.5736 -98.6547 168° South 201 231 5,700 -540 Descending Houston Center
11:50AM 29.5214 -98.6344 161° South 206 237 5,200 -540 Descending Houston Center
11:51AM 29.4767 -98.6119 156° South 202 232 4,800 -600 Descending Houston Center
11:51AM 29.4644 -98.6078 163° South 207 238 4,600 -720 Descending Houston Center
11:52AM 29.4178 -98.5867 158° South 207 238 4,100 -780 Descending Houston Center
11:52AM 29.4053 -98.5811 159° South 211 243 3,800 -900 Descending Houston Center
11:53AM 29.3697 -98.5503 143° Southeast 207 238 3,200 -900 Descending Houston Center
11:54AM 29.3331 -98.5033 132° Southeast 180 207 2,200 -960 Descending Houston Center
11:55AM 29.3133 -98.4669 122° Southeast 161 185 1,300 -780 Descending Houston Center
11:55AM 29.3186 -98.4597 50° Northeast 109 125 1,200 -120 Descending Houston Center
11:56AM 29.3267 -98.4564 20° North 106 122 1,200  Level Houston Center
11:57AM 29.3267 -98.4564 164° South 106 122 1,200  Level Houston Center